Time;durP1;ratioP1;P1;durP2;ratioP2;P2;SDS_P1;SDS_P2;PMS_P1;PMS_P2;Temp;Humidity;BMP_temperature;BMP_pressure;BME280_temperature;BME280_humidity;BME280_pressure;Samples;Min_cycle;Max_cycle;Signal;HPM_P1;HPM_P2
2023/11/17 00:00:13;;;;;;;22.60;12.00;;;;;;;2.32;84.76;95297.17;110769;1273;22882;-80
2023/11/17 00:03:02;;;;;;;13.70;7.80;;;;;;;2.28;84.80;95298.52;110732;1273;22856;-79
2023/11/17 00:05:30;;;;;;;18.80;9.60;;;;;;;2.29;85.07;95293.16;110733;1273;22476;-80
2023/11/17 00:07:59;;;;;;;13.00;8.20;;;;;;;2.31;85.26;95279.81;110738;1273;22788;-80
2023/11/17 00:10:27;;;;;;;21.90;11.80;;;;;;;2.29;85.44;95273.38;110708;1273;22147;-80
2023/11/17 00:12:55;;;;;;;31.00;16.40;;;;;;;2.33;85.52;95276.19;110725;1273;22950;-79
2023/11/17 00:15:24;;;;;;;46.80;23.70;;;;;;;2.37;85.65;95273.79;110759;1273;22220;-80
2023/11/17 00:17:52;;;;;;;10.70;4.60;;;;;;;2.40;85.72;95277.28;110702;1273;22779;-79
2023/11/17 00:20:20;;;;;;;13.10;8.00;;;;;;;2.49;85.56;95269.38;110741;1273;22136;-79
2023/11/17 00:22:48;;;;;;;44.90;20.20;;;;;;;2.60;85.89;95266.84;110568;1273;23006;-79
2023/11/17 00:25:19;;;;;;;30.80;15.20;;;;;;;2.71;85.79;95263.44;110727;1273;22145;-79
2023/11/17 00:27:48;;;;;;;32.40;14.00;;;;;;;2.83;85.30;95249.27;110772;1273;22132;-80
2023/11/17 00:30:17;;;;;;;20.10;9.60;;;;;;;2.88;85.00;95242.16;110729;1273;22128;-80
2023/11/17 00:32:45;;;;;;;20.40;10.50;;;;;;;2.88;84.92;95245.98;110553;1273;22288;-79
2023/11/17 00:35:14;;;;;;;8.90;5.00;;;;;;;2.85;84.84;95246.14;110715;1273;22098;-79
2023/11/17 00:37:43;;;;;;;11.20;6.10;;;;;;;2.91;84.96;95239.92;110588;1273;22184;-79
2023/11/17 00:40:12;;;;;;;19.90;9.50;;;;;;;3.03;85.10;95221.92;110743;1273;22287;-80
2023/11/17 00:42:40;;;;;;;26.30;9.70;;;;;;;3.11;84.72;95209.77;110698;1273;22203;-80
2023/11/17 00:45:09;;;;;;;22.80;10.20;;;;;;;3.14;84.45;95202.85;110582;1273;22137;-79
2023/11/17 00:47:37;;;;;;;22.30;11.10;;;;;;;3.20;84.41;95208.95;110720;1273;22294;-79
2023/11/17 00:50:10;;;;;;;18.50;9.50;;;;;;;3.26;84.25;95208.96;110729;1273;22268;-79
2023/11/17 00:52:41;;;;;;;17.70;8.40;;;;;;;3.32;83.98;95207.77;110566;1273;23070;-79
2023/11/17 00:55:13;;;;;;;37.20;16.70;;;;;;;3.37;83.89;95206.39;110725;1273;22178;-79
2023/11/17 00:57:43;;;;;;;32.20;13.70;;;;;;;3.38;83.76;95202.57;110512;1273;22096;-79
2023/11/17 01:00:13;;;;;;;25.00;12.80;;;;;;;3.43;84.04;95204.84;110573;1273;22297;-79
2023/11/17 01:02:41;;;;;;;18.40;9.80;;;;;;;3.50;84.01;95205.21;110551;1273;22102;-79
2023/11/17 01:05:10;;;;;;;13.60;8.00;;;;;;;3.55;83.37;95200.36;110720;1273;22103;-79
2023/11/17 01:07:40;;;;;;;12.70;7.70;;;;;;;3.49;83.08;95195.11;110704;1273;22299;-79
2023/11/17 01:10:08;;;;;;;19.00;10.10;;;;;;;3.47;83.15;95192.00;110558;1273;22131;-79
2023/11/17 01:12:37;;;;;;;17.10;9.20;;;;;;;3.40;82.66;95186.59;110602;1273;22125;-80
2023/11/17 01:15:07;;;;;;;18.30;10.50;;;;;;;3.25;83.04;95178.38;110525;1273;22323;-79
2023/11/17 01:17:35;;;;;;;19.10;9.70;;;;;;;3.17;83.27;95178.17;110737;1273;22280;-79
2023/11/17 01:20:04;;;;;;;23.70;11.20;;;;;;;3.09;83.30;95181.29;110716;1273;22122;-80
2023/11/17 01:22:33;;;;;;;28.70;12.90;;;;;;;3.01;84.08;95173.61;110741;1273;22116;-79
2023/11/17 01:25:01;;;;;;;32.70;14.60;;;;;;;3.01;84.06;95167.35;110712;1273;22130;-79
2023/11/17 01:27:29;;;;;;;37.40;15.10;;;;;;;2.96;83.52;95157.45;110746;1273;22914;-79
2023/11/17 01:29:58;;;;;;;38.80;15.20;;;;;;;2.95;84.16;95156.20;110536;1273;22139;-79
2023/11/17 01:32:29;;;;;;;33.90;14.00;;;;;;;2.93;84.12;95151.51;110705;1273;22119;-79
2023/11/17 01:34:57;;;;;;;8.80;4.60;;;;;;;2.90;84.62;95142.45;110749;1273;22208;-79
2023/11/17 01:37:25;;;;;;;3.50;2.20;;;;;;;2.94;84.35;95137.61;110719;1273;22145;-79
2023/11/17 01:39:53;;;;;;;12.20;5.60;;;;;;;2.93;85.20;95138.48;110576;1273;22204;-79
2023/11/17 01:42:21;;;;;;;9.00;5.20;;;;;;;2.92;85.17;95135.69;110717;1273;22879;-79
2023/11/17 01:44:50;;;;;;;12.10;6.30;;;;;;;2.94;85.00;95133.27;110579;1273;22185;-80
2023/11/17 01:47:20;;;;;;;9.70;5.30;;;;;;;2.94;84.99;95133.27;110744;1273;22114;-80
2023/11/17 01:49:49;;;;;;;12.70;6.10;;;;;;;2.95;84.90;95131.36;110720;1273;22253;-79
2023/11/17 01:52:18;;;;;;;7.30;4.10;;;;;;;3.02;84.79;95111.58;110744;1273;22263;-79
2023/11/17 01:54:48;;;;;;;9.20;5.40;;;;;;;3.09;84.72;95107.08;110570;1273;22104;-79
2023/11/17 01:57:16;;;;;;;7.50;4.70;;;;;;;3.11;84.45;95107.44;110716;1272;22389;-79
2023/11/17 01:59:45;;;;;;;5.30;2.70;;;;;;;3.15;84.17;95104.83;110608;1273;22130;-79
2023/11/17 02:02:13;;;;;;;3.70;2.40;;;;;;;3.21;84.12;95097.54;110542;1273;22208;-79
2023/11/17 02:04:41;;;;;;;8.80;4.10;;;;;;;3.24;83.94;95093.20;110715;1273;22191;-80
2023/11/17 02:07:24;;;;;;;9.50;5.40;;;;;;;3.26;83.90;95091.46;110546;1273;22142;-79
2023/11/17 02:10:06;;;;;;;6.10;4.10;;;;;;;3.30;83.90;95084.86;110659;1273;22288;-79
2023/11/17 02:12:52;;;;;;;9.10;4.30;;;;;;;3.35;83.41;95073.39;110684;1273;22149;-80
2023/11/17 02:15:26;;;;;;;7.70;4.70;;;;;;;3.36;83.37;95073.23;110562;1273;22143;-79
2023/11/17 02:17:58;;;;;;;3.60;2.10;;;;;;;3.46;83.54;95073.75;110738;1273;22139;-80
2023/11/17 02:20:34;;;;;;;2.90;1.90;;;;;;;3.53;83.21;95070.10;110629;1273;22118;-80
2023/11/17 02:23:10;;;;;;;3.70;2.60;;;;;;;3.54;82.95;95064.71;110568;1273;22812;-80
2023/11/17 02:26:03;;;;;;;6.20;4.10;;;;;;;3.57;83.00;95056.70;110694;1273;22245;-80
2023/11/17 02:29:04;;;;;;;6.60;4.00;;;;;;;3.59;82.51;95049.23;110748;1273;22128;-80
2023/11/17 02:31:33;;;;;;;4.80;2.90;;;;;;;3.49;82.43;95049.41;110630;1273;22328;-80
2023/11/17 02:34:08;;;;;;;4.30;2.00;;;;;;;3.50;82.64;95046.96;110623;1273;22174;-80
2023/11/17 02:36:38;;;;;;;3.70;2.80;;;;;;;3.47;82.47;95045.23;110574;1273;22118;-80
2023/11/17 02:39:14;;;;;;;3.10;2.10;;;;;;;3.50;82.52;95037.76;110564;1272;22168;-80
2023/11/17 02:41:57;;;;;;;2.90;2.10;;;;;;;3.50;82.27;95039.67;110710;1273;22197;-80
2023/11/17 02:44:33;;;;;;;2.60;2.30;;;;;;;3.49;82.22;95041.05;110731;1273;22131;-80
2023/11/17 02:47:05;;;;;;;3.90;2.20;;;;;;;3.45;81.78;95038.63;110558;1273;22143;-80
2023/11/17 02:49:42;;;;;;;4.90;2.20;;;;;;;3.43;81.89;95030.46;110642;1273;22814;-81
2023/11/17 02:52:24;;;;;;;4.60;3.20;;;;;;;3.39;81.99;95026.29;110733;1273;22202;-80
2023/11/17 02:54:55;;;;;;;6.60;4.20;;;;;;;3.31;82.75;95028.19;110704;1273;22139;-81
2023/11/17 02:57:25;;;;;;;4.80;3.00;;;;;;;3.29;82.50;95024.73;110597;1273;22447;-80
2023/11/17 02:59:54;;;;;;;7.30;4.90;;;;;;;3.29;82.71;95021.59;110737;1273;22348;-80
2023/11/17 03:02:22;;;;;;;5.50;3.50;;;;;;;3.24;83.08;95016.56;110712;1273;22755;-80
2023/11/17 03:04:54;;;;;;;4.10;3.10;;;;;;;3.20;83.35;95011.86;110711;1273;22205;-80
2023/11/17 03:07:22;;;;;;;5.60;3.30;;;;;;;3.13;83.61;95005.42;110731;1273;22925;-81
2023/11/17 03:09:53;;;;;;;5.40;3.10;;;;;;;3.13;83.45;95004.04;110569;1273;22128;-80
2023/11/17 03:12:21;;;;;;;3.80;2.40;;;;;;;3.19;83.40;95002.13;110702;1273;22177;-80
2023/11/17 03:14:53;;;;;;;4.50;2.90;;;;;;;3.28;83.10;95001.95;110729;1273;22873;-80
2023/11/17 03:17:22;;;;;;;2.70;2.10;;;;;;;3.32;82.86;95002.13;110568;1273;22149;-80
2023/11/17 03:19:50;;;;;;;4.20;2.20;;;;;;;3.37;82.88;95000.03;110711;1273;22339;-80
2023/11/17 03:22:19;;;;;;;4.40;2.80;;;;;;;3.44;82.63;94996.73;110716;1273;22117;-80
2023/11/17 03:24:47;;;;;;;3.50;2.70;;;;;;;3.48;82.34;94996.56;110695;1273;22362;-80
2023/11/17 03:27:15;;;;;;;4.30;2.90;;;;;;;3.49;82.15;94995.52;110721;1257;22325;-80
2023/11/17 03:29:46;;;;;;;4.20;2.20;;;;;;;3.53;82.23;94997.25;110556;1273;22128;-81
2023/11/17 03:32:16;;;;;;;6.70;4.60;;;;;;;3.55;82.04;94991.33;110707;1273;22142;-80
2023/11/17 03:34:46;;;;;;;6.10;4.10;;;;;;;3.57;82.09;94986.80;110703;1273;22142;-80
2023/11/17 03:37:18;;;;;;;4.70;2.50;;;;;;;3.62;81.85;94987.32;110724;1273;22100;-80
2023/11/17 03:39:47;;;;;;;4.50;2.40;;;;;;;3.64;81.84;94984.54;110735;1273;22153;-81
2023/11/17 03:42:18;;;;;;;4.10;2.90;;;;;;;3.63;81.58;94983.84;110735;1273;22118;-80
2023/11/17 03:44:48;;;;;;;2.90;2.20;;;;;;;3.63;81.86;94983.50;110703;1273;22138;-80
2023/11/17 03:47:18;;;;;;;3.70;2.70;;;;;;;3.65;81.73;94984.88;110713;1273;22127;-80
2023/11/17 03:49:47;;;;;;;4.90;2.60;;;;;;;3.69;81.85;94980.52;110573;1273;22128;-80
2023/11/17 03:52:15;;;;;;;4.30;2.80;;;;;;;3.69;81.58;94973.21;110553;1272;22151;-80
2023/11/17 03:54:43;;;;;;;3.70;2.70;;;;;;;3.65;81.58;94971.33;110699;1273;22119;-80
2023/11/17 03:57:12;;;;;;;4.60;2.80;;;;;;;3.65;81.61;94968.71;110560;1273;22158;-80
2023/11/17 03:59:46;;;;;;;3.20;2.70;;;;;;;3.65;81.63;94960.00;110722;1273;22134;-80
2023/11/17 04:02:15;;;;;;;5.70;2.80;;;;;;;3.66;81.52;94959.48;110718;1273;22148;-79
2023/11/17 04:04:43;;;;;;;2.80;2.00;;;;;;;3.64;81.39;94965.05;110730;1273;22254;-80
2023/11/17 04:07:12;;;;;;;4.50;3.00;;;;;;;3.60;81.42;94961.94;110727;1273;22109;-80
2023/11/17 04:09:40;;;;;;;3.10;2.80;;;;;;;3.56;81.63;94962.98;110578;1273;22826;-80
2023/11/17 04:12:09;;;;;;;4.40;3.70;;;;;;;3.53;81.88;94962.98;110569;1273;22144;-80
2023/11/17 04:14:41;;;;;;;4.80;4.00;;;;;;;3.51;82.80;94956.90;110591;1273;22268;-81
2023/11/17 04:17:10;;;;;;;6.70;4.50;;;;;;;3.47;83.01;94953.95;110641;1273;22129;-81
2023/11/17 04:19:40;;;;;;;7.70;4.60;;;;;;;3.48;83.20;94954.48;110718;1273;22587;-80
2023/11/17 04:22:09;;;;;;;9.70;5.40;;;;;;;3.47;83.25;94950.83;110715;1273;22149;-80
2023/11/17 04:24:38;;;;;;;8.80;5.70;;;;;;;3.44;83.47;94944.39;110711;1273;22167;-80
2023/11/17 04:27:08;;;;;;;9.00;5.20;;;;;;;3.47;83.30;94946.65;110709;1273;22214;-79
2023/11/17 04:29:36;;;;;;;12.70;6.60;;;;;;;3.51;83.20;94960.56;110714;1273;22190;-80
2023/11/17 04:32:05;;;;;;;69.70;23.20;;;;;;;3.50;83.32;94955.00;110696;1273;22312;-81
2023/11/17 04:34:33;;;;;;;9.90;5.50;;;;;;;3.54;83.53;94946.98;110688;1273;22122;-82
2023/11/17 04:37:05;;;;;;;24.40;11.60;;;;;;;3.55;83.51;94945.25;110712;1273;22861;-81
2023/11/17 04:39:34;;;;;;;44.30;18.20;;;;;;;3.57;83.40;94948.55;110719;1273;22266;-80
2023/11/17 04:42:03;;;;;;;25.10;11.10;;;;;;;3.55;83.27;94940.73;110733;1273;22369;-80
2023/11/17 04:44:33;;;;;;;18.00;7.80;;;;;;;3.54;83.36;94936.04;110606;1273;22350;-81
2023/11/17 04:47:01;;;;;;;27.60;10.70;;;;;;;3.55;83.33;94935.15;110696;1273;22348;-81
2023/11/17 04:49:29;;;;;;;22.90;8.40;;;;;;;3.59;83.12;94927.85;110720;1273;22129;-81
2023/11/17 04:51:58;;;;;;;7.10;4.40;;;;;;;3.61;82.87;94928.55;110727;1260;22153;-80
2023/11/17 04:54:26;;;;;;;5.50;3.20;;;;;;;3.64;82.88;94926.98;110752;1273;22787;-80
2023/11/17 04:56:55;;;;;;;16.00;7.30;;;;;;;3.64;82.99;94912.02;110730;1273;22346;-81
2023/11/17 04:59:23;;;;;;;14.30;6.20;;;;;;;3.64;83.11;94905.57;110719;1273;22108;-79
2023/11/17 05:01:51;;;;;;;29.70;9.50;;;;;;;3.60;83.25;94912.89;110717;1273;22114;-80
2023/11/17 05:04:20;;;;;;;14.10;6.30;;;;;;;3.59;83.28;94925.06;110570;1273;22112;-81
2023/11/17 05:06:48;;;;;;;19.50;8.80;;;;;;;3.59;83.41;94930.80;110699;1273;22919;-80
2023/11/17 05:09:17;;;;;;;16.90;9.50;;;;;;;3.54;83.66;94930.29;110713;1273;22121;-80
2023/11/17 05:11:45;;;;;;;24.00;11.80;;;;;;;3.49;83.87;94927.52;110728;1273;22102;-80
2023/11/17 05:14:13;;;;;;;18.40;7.70;;;;;;;3.45;84.10;94926.13;110711;1273;22117;-79
2023/11/17 05:16:42;;;;;;;21.20;8.20;;;;;;;3.42;84.04;94929.96;110706;1273;22965;-80
2023/11/17 05:19:13;;;;;;;33.60;16.00;;;;;;;3.41;84.29;94922.84;110709;1273;22862;-81
2023/11/17 05:21:42;;;;;;;44.40;19.00;;;;;;;3.40;84.48;94925.12;110729;1273;22146;-80
2023/11/17 05:24:10;;;;;;;34.60;13.50;;;;;;;3.38;84.55;94924.94;110694;1273;23330;-81
2023/11/17 05:26:38;;;;;;;18.80;9.90;;;;;;;3.36;84.67;94923.20;110683;1273;22145;-80
2023/11/17 05:29:06;;;;;;;30.10;13.00;;;;;;;3.40;84.59;94922.16;110703;1273;22105;-80
2023/11/17 05:31:34;;;;;;;32.00;12.80;;;;;;;3.40;84.67;94921.45;110686;1273;23246;-80
2023/11/17 05:34:02;;;;;;;12.80;7.00;;;;;;;3.42;84.79;94923.20;110700;1273;22289;-79
2023/11/17 05:36:31;;;;;;;29.20;13.90;;;;;;;3.42;84.83;94921.27;110710;1273;22806;-81
2023/11/17 05:38:59;;;;;;;35.30;16.70;;;;;;;3.41;85.17;94917.11;110710;1273;22138;-80
2023/11/17 05:41:27;;;;;;;30.20;14.70;;;;;;;3.39;85.23;94910.69;110694;1273;22804;-79
2023/11/17 05:43:55;;;;;;;26.50;13.00;;;;;;;3.40;85.20;94910.67;110720;1273;22844;-80
2023/11/17 05:46:24;;;;;;;27.40;13.80;;;;;;;3.39;85.26;94907.90;110581;1273;22283;-81
2023/11/17 05:48:53;;;;;;;26.30;13.40;;;;;;;3.36;85.28;94905.29;110706;1273;22200;-79
2023/11/17 05:51:22;;;;;;;29.60;14.40;;;;;;;3.37;85.45;94904.42;110717;1273;22132;-80
2023/11/17 05:53:51;;;;;;;24.20;12.40;;;;;;;3.38;85.47;94904.60;110531;1273;22332;-79
2023/11/17 05:56:20;;;;;;;18.30;10.20;;;;;;;3.39;85.37;94909.11;110719;1273;22141;-80
2023/11/17 05:58:51;;;;;;;25.70;12.30;;;;;;;3.44;85.33;94904.58;110684;1273;22994;-79
2023/11/17 06:01:20;;;;;;;24.60;10.60;;;;;;;3.49;85.26;94900.05;110770;1266;22209;-77
2023/11/17 06:03:48;;;;;;;34.40;16.10;;;;;;;3.48;85.44;94890.30;110680;1273;22131;-78
2023/11/17 06:06:17;;;;;;;17.50;9.00;;;;;;;3.48;85.34;94890.84;110694;1273;22301;-78
2023/11/17 06:08:45;;;;;;;9.90;6.20;;;;;;;3.53;85.07;94890.82;110685;1273;22142;-79
2023/11/17 06:11:13;;;;;;;16.80;8.00;;;;;;;3.51;84.79;94884.05;110513;1273;22171;-79
2023/11/17 06:13:41;;;;;;;19.20;9.40;;;;;;;3.47;85.30;94881.45;110735;1273;22290;-80
2023/11/17 06:16:15;;;;;;;8.10;5.40;;;;;;;3.47;85.22;94886.15;110694;1273;22262;-79
2023/11/17 06:18:44;;;;;;;9.80;5.40;;;;;;;3.48;85.01;94889.80;110641;1273;22192;-78
2023/11/17 06:21:12;;;;;;;9.30;5.50;;;;;;;3.45;84.90;94891.36;110667;1273;22180;-79
2023/11/17 06:23:41;;;;;;;9.70;5.70;;;;;;;3.43;85.12;94893.45;110568;1273;23157;-78
2023/11/17 06:26:09;;;;;;;7.90;5.50;;;;;;;3.42;84.79;94890.85;110684;1273;22791;-80
2023/11/17 06:28:38;;;;;;;12.30;8.90;;;;;;;3.45;84.82;94888.77;110694;1273;22223;-78
2023/11/17 06:31:06;;;;;;;18.90;12.40;;;;;;;3.48;85.26;94886.66;110696;1273;22129;-78
2023/11/17 06:33:34;;;;;;;25.70;15.90;;;;;;;3.48;85.58;94887.88;110698;1273;22129;-80
2023/11/17 06:36:03;;;;;;;20.10;10.40;;;;;;;3.44;85.98;94888.24;110693;1273;22157;-79
2023/11/17 06:38:35;;;;;;;25.90;13.90;;;;;;;3.44;86.02;94881.98;110593;1273;22193;-79
2023/11/17 06:41:04;;;;;;;25.40;15.00;;;;;;;3.48;86.09;94887.89;110582;1273;22108;-79
2023/11/17 06:43:32;;;;;;;19.50;11.90;;;;;;;3.52;85.95;94889.79;110702;1273;22866;-78
2023/11/17 06:46:01;;;;;;;18.50;10.60;;;;;;;3.53;85.89;94893.44;110739;1273;22134;-80
2023/11/17 06:48:29;;;;;;;19.90;10.60;;;;;;;3.59;85.88;94894.81;110676;1273;22128;-77
2023/11/17 06:50:57;;;;;;;15.00;9.20;;;;;;;3.59;85.71;94894.46;110689;1273;22319;-79
2023/11/17 06:53:29;;;;;;;18.70;9.30;;;;;;;3.64;85.63;94888.01;110688;1266;22335;-79
2023/11/17 06:55:57;;;;;;;28.10;15.00;;;;;;;3.65;85.63;94880.52;110712;1266;23074;-80
2023/11/17 06:58:26;;;;;;;26.90;15.10;;;;;;;3.63;85.50;94883.32;110775;1266;22197;-78
2023/11/17 07:00:54;;;;;;;25.90;14.80;;;;;;;3.64;85.53;94883.14;110557;1273;22152;-78
2023/11/17 07:03:22;;;;;;;23.00;12.90;;;;;;;3.68;85.50;94876.00;110780;1266;23129;-78
2023/11/17 07:05:51;;;;;;;21.80;13.60;;;;;;;3.75;85.39;94879.96;110802;1266;22145;-79
2023/11/17 07:08:19;;;;;;;32.10;17.30;;;;;;;3.83;85.18;94873.50;110734;1273;23177;-78
2023/11/17 07:10:47;;;;;;;31.50;17.30;;;;;;;3.92;85.11;94868.08;110750;1273;22172;-80
2023/11/17 07:13:15;;;;;;;18.00;11.80;;;;;;;4.00;84.84;94870.99;110706;1273;22303;-80
2023/11/17 07:15:43;;;;;;;18.90;11.20;;;;;;;3.99;84.43;94865.79;110571;1273;22139;-81
2023/11/17 07:18:11;;;;;;;19.30;14.80;;;;;;;4.00;84.44;94865.94;110708;1266;22372;-82
2023/11/17 07:20:40;;;;;;;17.40;10.10;;;;;;;3.99;84.35;94853.94;110699;1273;22124;-82
2023/11/17 07:23:08;;;;;;;15.30;9.10;;;;;;;3.97;84.86;94842.80;110702;1273;22842;-82
2023/11/17 07:25:41;;;;;;;13.20;8.30;;;;;;;3.99;84.89;94845.77;110685;1273;22229;-82
2023/11/17 07:28:09;;;;;;;16.80;8.90;;;;;;;3.98;84.84;94841.77;110683;1273;22144;-82
2023/11/17 07:30:37;;;;;;;14.00;9.40;;;;;;;3.96;84.77;94846.66;110714;1273;22136;-83
2023/11/17 07:33:08;;;;;;;16.10;11.00;;;;;;;4.00;84.57;94844.89;110696;1273;22129;-81
2023/11/17 07:35:40;;;;;;;21.80;11.50;;;;;;;4.07;84.67;94844.33;110703;1273;22113;-81
2023/11/17 07:38:08;;;;;;;19.50;12.70;;;;;;;4.10;84.69;94840.83;110720;1273;22131;-81
2023/11/17 07:40:38;;;;;;;22.40;14.80;;;;;;;4.15;84.49;94844.80;110709;1273;22275;-81
2023/11/17 07:43:07;;;;;;;18.10;12.60;;;;;;;4.18;84.24;94837.30;110726;1273;22128;-81
2023/11/17 07:45:35;;;;;;;15.90;10.90;;;;;;;4.17;84.12;94837.98;110701;1273;22117;-81
2023/11/17 07:48:05;;;;;;;16.00;10.30;;;;;;;4.19;84.22;94836.25;110719;1273;22157;-81
2023/11/17 07:50:35;;;;;;;11.80;7.90;;;;;;;4.27;84.18;94829.40;110577;1273;22142;-80
2023/11/17 07:53:04;;;;;;;15.50;7.90;;;;;;;4.31;83.88;94830.08;110734;1273;22098;-80
2023/11/17 07:55:32;;;;;;;10.00;6.80;;;;;;;4.39;83.53;94828.63;110701;1273;22209;-80
2023/11/17 07:58:03;;;;;;;10.00;5.80;;;;;;;4.44;83.54;94830.66;110706;1273;22165;-79
2023/11/17 08:00:34;;;;;;;17.10;8.90;;;;;;;4.54;83.27;94832.00;110704;1273;22172;-80
2023/11/17 08:03:02;;;;;;;16.50;9.50;;;;;;;4.58;83.15;94817.85;110689;1273;22156;-81
2023/11/17 08:05:30;;;;;;;37.20;17.60;;;;;;;4.64;83.02;94819.91;110706;1273;22677;-80
2023/11/17 08:08:00;;;;;;;33.60;15.00;;;;;;;4.69;82.59;94812.72;110706;1273;22744;-80
2023/11/17 08:10:29;;;;;;;24.00;14.20;;;;;;;4.78;82.74;94812.98;110565;1273;22131;-80
2023/11/17 08:12:58;;;;;;;34.70;26.60;;;;;;;4.88;82.69;94806.63;110722;1273;22133;-80
2023/11/17 08:15:29;;;;;;;14.70;10.50;;;;;;;4.98;82.41;94808.27;110571;1273;22806;-80
2023/11/17 08:17:57;;;;;;;12.10;7.30;;;;;;;4.99;81.59;94803.04;110695;1272;23066;-80
2023/11/17 08:20:25;;;;;;;12.60;8.30;;;;;;;4.92;81.68;94796.30;110717;1273;22108;-81
2023/11/17 08:22:54;;;;;;;17.60;10.40;;;;;;;4.95;82.22;94783.04;110704;1273;22905;-80
2023/11/17 08:25:26;;;;;;;15.50;12.30;;;;;;;5.06;82.07;94791.98;110609;1273;22976;-80
2023/11/17 08:27:54;;;;;;;20.50;11.50;;;;;;;5.08;81.65;94790.58;110598;1273;22655;-81
2023/11/17 08:30:22;;;;;;;11.60;8.40;;;;;;;5.11;81.27;94793.67;110698;1273;22130;-78
2023/11/17 08:32:50;;;;;;;12.20;7.80;;;;;;;5.22;81.23;94786.42;110731;1273;22120;-80
2023/11/17 08:35:21;;;;;;;13.40;7.50;;;;;;;5.40;81.20;94783.95;110725;1269;22132;-80
2023/11/17 08:37:52;;;;;;;15.40;9.30;;;;;;;5.57;80.51;94779.20;110721;1273;22151;-81
2023/11/17 08:40:20;;;;;;;9.20;6.40;;;;;;;5.67;79.98;94779.27;110727;1273;22240;-82
2023/11/17 08:42:49;;;;;;;8.80;5.70;;;;;;;5.89;80.02;94776.18;110701;1273;22236;-81
2023/11/17 08:45:17;;;;;;;13.10;7.60;;;;;;;6.13;79.66;94775.86;110724;1273;22268;-82
2023/11/17 08:47:49;;;;;;;7.30;4.70;;;;;;;6.32;78.66;94771.05;110737;1273;22130;-82
2023/11/17 08:50:18;;;;;;;6.10;4.10;;;;;;;6.45;78.38;94772.40;110716;1273;22209;-84
2023/11/17 08:52:47;;;;;;;7.20;5.00;;;;;;;6.52;77.90;94771.95;110621;1273;22112;-81
2023/11/17 08:55:17;;;;;;;6.40;4.30;;;;;;;6.56;76.96;94768.58;110730;1272;22185;-80
2023/11/17 08:57:45;;;;;;;6.10;4.00;;;;;;;6.59;76.58;94768.35;110717;1273;22372;-82
2023/11/17 09:00:18;;;;;;;4.60;3.70;;;;;;;6.59;76.44;94760.30;110715;1273;22245;-83
2023/11/17 09:02:46;;;;;;;9.30;5.80;;;;;;;6.63;76.11;94761.10;110698;1273;22854;-83
2023/11/17 09:05:16;;;;;;;7.40;5.40;;;;;;;6.57;75.53;94760.17;110709;1273;22122;-83
2023/11/17 09:07:46;;;;;;;6.90;4.60;;;;;;;6.56;76.20;94756.68;110656;1273;22121;-80
2023/11/17 09:10:16;;;;;;;6.20;4.80;;;;;;;6.58;76.93;94759.46;110612;1273;22276;-85
2023/11/17 09:12:45;;;;;;;4.50;3.90;;;;;;;6.63;76.92;94759.55;110710;1273;22880;-82
2023/11/17 09:15:18;;;;;;;13.40;7.40;;;;;;;6.67;76.63;94750.90;110691;1273;22878;-82
2023/11/17 09:17:50;;;;;;;7.90;4.90;;;;;;;6.63;75.47;94748.34;110716;1273;22211;-81
2023/11/17 09:20:23;;;;;;;7.00;4.50;;;;;;;6.63;76.10;94748.71;110726;1273;22233;-83
2023/11/17 09:22:52;;;;;;;6.20;4.80;;;;;;;6.65;76.19;94749.38;110727;1273;22126;-83
2023/11/17 09:25:23;;;;;;;5.70;4.50;;;;;;;6.66;76.01;94746.04;110610;1273;22152;-84
2023/11/17 09:27:56;;;;;;;7.30;5.50;;;;;;;6.65;75.43;94747.80;110601;1273;22234;-83
2023/11/17 09:30:30;;;;;;;8.80;5.90;;;;;;;6.60;75.76;94746.15;110569;1273;22137;-83
2023/11/17 09:33:02;;;;;;;5.80;4.20;;;;;;;6.58;75.36;94745.29;110707;1273;22943;-85
2023/11/17 09:35:32;;;;;;;6.60;4.80;;;;;;;6.57;75.56;94749.52;110627;1273;22213;-84
2023/11/17 09:38:01;;;;;;;5.30;4.00;;;;;;;6.55;75.47;94741.33;110618;1273;22263;-83
2023/11/17 09:40:36;;;;;;;5.90;4.40;;;;;;;6.52;75.76;94748.20;110618;1273;22858;-87
2023/11/17 09:43:21;;;;;;;5.50;4.30;;;;;;;6.54;76.03;94748.69;110754;1273;22355;-84
2023/11/17 09:45:54;;;;;;;5.00;3.90;;;;;;;6.53;75.87;94745.55;110638;1272;22173;-85
2023/11/17 09:48:25;;;;;;;6.50;4.10;;;;;;;6.47;75.83;94746.17;110639;1273;22251;-83
2023/11/17 09:50:56;;;;;;;4.40;3.90;;;;;;;6.39;75.78;94749.27;110729;1273;22118;-85
2023/11/17 09:53:26;;;;;;;4.30;3.60;;;;;;;6.34;76.04;94740.61;110850;1266;22291;-86
2023/11/17 09:55:57;;;;;;;5.60;4.00;;;;;;;6.34;75.80;94732.60;110718;1273;22856;-84
2023/11/17 09:58:27;;;;;;;6.70;3.80;;;;;;;6.28;75.60;94728.15;110695;1273;22831;-86
2023/11/17 10:00:56;;;;;;;6.40;3.60;;;;;;;6.25;75.85;94726.09;110714;1273;22228;-85
2023/11/17 10:03:28;;;;;;;5.60;4.20;;;;;;;6.24;75.84;94731.86;110568;1273;22205;-82
2023/11/17 10:06:04;;;;;;;4.70;3.70;;;;;;;6.21;75.35;94724.92;110622;1273;22201;-81
2023/11/17 10:08:34;;;;;;;5.30;3.70;;;;;;;6.19;75.50;94724.79;110621;1273;22220;-84
2023/11/17 10:11:02;;;;;;;5.20;3.70;;;;;;;6.20;76.01;94715.35;110709;1273;22279;-84
2023/11/17 10:13:31;;;;;;;9.20;3.80;;;;;;;6.23;75.99;94714.74;110549;1273;233570;-83
2023/11/17 10:16:01;;;;;;;9.30;6.30;;;;;;;6.27;75.91;94714.35;110631;1271;22209;-84
2023/11/17 10:18:32;;;;;;;8.50;6.10;;;;;;;6.25;75.76;94714.40;110729;1273;22866;-82
2023/11/17 10:21:01;;;;;;;5.10;4.20;;;;;;;6.22;75.67;94714.96;110561;1273;22122;-86
2023/11/17 10:23:32;;;;;;;9.30;6.90;;;;;;;6.19;75.65;94710.11;110725;1273;22940;-84
2023/11/17 10:26:00;;;;;;;6.40;4.70;;;;;;;6.22;76.14;94703.63;110714;1269;22146;-84
2023/11/17 10:28:29;;;;;;;7.70;4.60;;;;;;;6.25;75.73;94701.82;110707;1273;22144;-85
2023/11/17 10:31:00;;;;;;;9.30;5.20;;;;;;;6.20;74.84;94702.41;110732;1273;22142;-85
2023/11/17 10:33:30;;;;;;;7.70;6.00;;;;;;;6.19;75.20;94702.44;110593;1264;22181;-83
2023/11/17 10:36:04;;;;;;;9.10;5.90;;;;;;;6.20;75.22;94705.38;110717;1273;22123;-83
2023/11/17 10:38:35;;;;;;;6.10;4.70;;;;;;;6.21;75.07;94710.95;110636;1273;22246;-83
2023/11/17 10:41:20;;;;;;;7.10;4.20;;;;;;;6.22;75.27;94703.61;110623;1273;22126;-86
2023/11/17 10:43:53;;;;;;;5.30;4.50;;;;;;;6.28;75.43;94693.21;110716;1273;22737;-85
2023/11/17 10:46:26;;;;;;;5.70;4.10;;;;;;;6.34;75.41;94684.20;110617;1273;22887;-85
2023/11/17 10:48:59;;;;;;;6.90;4.30;;;;;;;6.40;75.59;94685.33;110729;1273;22135;-87
2023/11/17 10:51:28;;;;;;;5.40;3.60;;;;;;;6.44;75.13;94685.42;110720;1273;22128;-86
2023/11/17 10:54:12;;;;;;;6.40;4.30;;;;;;;6.45;75.26;94684.36;110725;1273;22287;-85
2023/11/17 10:56:42;;;;;;;5.50;4.10;;;;;;;6.47;75.31;94677.52;110725;1273;22286;-88
2023/11/17 10:59:15;;;;;;;5.60;4.20;;;;;;;6.53;75.38;94676.55;110724;1273;22181;-87
2023/11/17 11:01:48;;;;;;;5.60;4.00;;;;;;;6.56;74.83;94670.39;110609;1273;22114;-85
2023/11/17 11:04:25;;;;;;;5.20;3.80;;;;;;;6.59;74.99;94672.24;110724;1273;22867;-84
2023/11/17 11:06:55;;;;;;;5.00;4.10;;;;;;;6.59;74.59;94663.68;110565;1273;22287;-84
2023/11/17 11:09:34;;;;;;;5.60;4.10;;;;;;;6.58;74.56;94665.80;110545;1273;22193;-84
2023/11/17 11:12:07;;;;;;;6.90;4.40;;;;;;;6.56;74.64;94668.80;110673;1273;22213;-84
2023/11/17 11:14:43;;;;;;;4.70;3.80;;;;;;;6.59;74.60;94670.67;110717;1273;22177;-86
2023/11/17 11:17:13;;;;;;;4.70;3.90;;;;;;;6.54;74.42;94668.13;110742;1273;22133;-83
2023/11/17 11:19:45;;;;;;;7.10;4.90;;;;;;;6.53;74.79;94668.31;110717;1273;22132;-83
2023/11/17 11:22:34;;;;;;;8.00;6.80;;;;;;;6.53;74.99;94666.59;110701;1273;22121;-83
2023/11/17 11:25:05;;;;;;;11.10;9.90;;;;;;;6.52;75.08;94665.90;110704;1273;22148;-84
2023/11/17 11:27:35;;;;;;;8.70;5.50;;;;;;;6.53;75.12;94663.44;110742;1273;23123;-84
2023/11/17 11:30:06;;;;;;;5.40;3.90;;;;;;;6.53;74.79;94660.99;110546;1273;22130;-86
2023/11/17 11:32:35;;;;;;;5.30;3.90;;;;;;;6.48;74.59;94660.55;110730;1273;22293;-85
2023/11/17 11:35:03;;;;;;;4.50;3.90;;;;;;;6.47;74.95;94659.00;110544;1273;22187;-85
2023/11/17 11:37:33;;;;;;;5.60;3.90;;;;;;;6.47;75.14;94655.34;110699;1273;22891;-85
2023/11/17 11:40:03;;;;;;;6.20;4.10;;;;;;;6.47;75.17;94649.73;110715;1273;22146;-83